Weather at El Paso International Airport

Public forecast

Using degrees Fahrenheit for public forecast. Weather courtesy of forecast.io.

Current aviation weather report (METAR) for El Paso International Airport

Retrieved 2021/10/16 02:51 UTC (34 minutes ago):

KELP 160251Z 02005KT 10SM CLR 16/M11 A3026 RMK AO2 SLP205 T01561111 53023

Aviation forecast (TAF) for El Paso International Airport

Retrieved 2021-10-16 00:22 UTC (3 hours ago):

TAF KELP 152320Z 1600/1624 01010KT P6SM SKC FM161800 10008KT P6SM SKC